Time;durP1;ratioP1;P1;durP2;ratioP2;P2;SDS_P1;SDS_P2;PMS_P1;PMS_P2;Temp;Humidity;BMP_temperature;BMP_pressure;BME280_temperature;BME280_humidity;BME280_pressure;Samples;Min_cycle;Max_cycle;Signal;HPM_P1;HPM_P2
2021/07/29 00:00:39;;;;;;;6.53;4.80;;;15.20;99.90;;;;;;5093802;28;20063;-67
2021/07/29 00:03:05;;;;;;;7.55;4.60;;;15.20;99.90;;;;;;5108058;28;20102;-67
2021/07/29 00:05:33;;;;;;;5.35;3.88;;;15.10;99.90;;;;;;5096665;28;20043;-67
2021/07/29 00:07:59;;;;;;;7.50;4.18;;;15.10;99.90;;;;;;5097032;28;20484;-67
2021/07/29 00:10:27;;;;;;;8.40;4.45;;;15.00;99.90;;;;;;5100156;28;20804;-67
2021/07/29 00:12:52;;;;;;;6.55;4.25;;;15.00;99.90;;;;;;5092062;28;20036;-67
2021/07/29 00:15:18;;;;;;;7.00;4.22;;;15.00;99.90;;;;;;5111835;28;20666;-66
2021/07/29 00:20:20;;;;;;;7.07;4.22;;;15.00;99.90;;;;;;5099746;28;20123;-66
2021/07/29 00:22:52;;;;;;;5.97;4.03;;;14.90;99.90;;;;;;5111729;28;20031;-67
2021/07/29 00:25:21;;;;;;;7.97;3.92;;;14.90;99.90;;;;;;5103092;28;20050;-66
2021/07/29 00:27:47;;;;;;;5.70;3.45;;;14.90;99.90;;;;;;5106214;28;20117;-66
2021/07/29 00:30:15;;;;;;;7.90;4.03;;;14.90;99.90;;;;;;5108858;28;20066;-67
2021/07/29 00:32:41;;;;;;;5.05;4.20;;;14.90;99.90;;;;;;5091291;28;20107;-67
2021/07/29 00:35:09;;;;;;;4.32;3.88;;;14.90;99.90;;;;;;5092051;28;20499;-67
2021/07/29 00:37:36;;;;;;;5.00;3.85;;;14.80;99.90;;;;;;5095959;28;20036;-67
2021/07/29 00:40:03;;;;;;;6.30;3.92;;;14.80;99.90;;;;;;5091205;28;20047;-67
2021/07/29 00:42:29;;;;;;;6.18;3.80;;;14.80;99.90;;;;;;5091569;28;20050;-67
2021/07/29 00:44:55;;;;;;;5.18;3.47;;;14.80;99.90;;;;;;5114009;28;20106;-67
2021/07/29 00:47:20;;;;;;;7.30;3.65;;;14.70;99.90;;;;;;5115659;28;20396;-67
2021/07/29 00:49:47;;;;;;;4.32;3.25;;;14.70;99.90;;;;;;5104214;28;20028;-67
2021/07/29 00:52:20;;;;;;;6.13;3.92;;;14.70;99.90;;;;;;5115521;28;20067;-67
2021/07/29 00:54:46;;;;;;;6.63;3.70;;;14.70;99.90;;;;;;5096628;28;20074;-67
2021/07/29 00:57:12;;;;;;;9.05;4.22;;;14.70;99.90;;;;;;5095151;28;20051;-67
2021/07/29 00:59:39;;;;;;;6.45;4.22;;;14.60;99.90;;;;;;5095621;28;20114;-67
2021/07/29 01:02:05;;;;;;;6.93;3.88;;;14.60;99.90;;;;;;5108004;28;20048;-67
2021/07/29 01:04:31;;;;;;;5.80;3.60;;;14.60;99.90;;;;;;5114491;28;20036;-67
2021/07/29 01:06:57;;;;;;;7.40;3.58;;;14.70;99.90;;;;;;5104546;28;20032;-66
2021/07/29 01:09:23;;;;;;;6.53;3.38;;;14.70;99.90;;;;;;5094742;28;20134;-66
2021/07/29 01:11:49;;;;;;;6.60;3.60;;;14.80;99.90;;;;;;5095814;28;20047;-66
2021/07/29 01:14:15;;;;;;;7.03;3.63;;;14.80;99.90;;;;;;5094683;28;20047;-67
2021/07/29 01:16:41;;;;;;;7.38;3.85;;;15.00;99.90;;;;;;5094995;28;20474;-67
2021/07/29 01:19:08;;;;;;;7.30;3.40;;;15.00;99.90;;;;;;5114878;28;20046;-67
2021/07/29 01:21:34;;;;;;;7.47;3.65;;;15.00;99.90;;;;;;5114851;28;20035;-67
2021/07/29 01:24:00;;;;;;;8.00;3.90;;;15.00;99.90;;;;;;5112766;28;20051;-67
2021/07/29 01:26:29;;;;;;;5.78;3.67;;;15.10;99.90;;;;;;5096736;28;20110;-67
2021/07/29 01:28:56;;;;;;;5.57;3.83;;;15.10;99.90;;;;;;5114371;28;20058;-67
2021/07/29 01:31:21;;;;;;;7.80;3.58;;;15.10;99.90;;;;;;5104603;28;20043;-67
2021/07/29 01:33:47;;;;;;;6.68;3.42;;;15.10;99.90;;;;;;5094923;28;20036;-67
2021/07/29 01:36:13;;;;;;;9.52;3.92;;;15.20;99.90;;;;;;5093656;28;20040;-66
2021/07/29 01:38:39;;;;;;;5.80;3.53;;;15.20;99.90;;;;;;5100508;28;20065;-66
2021/07/29 01:41:04;;;;;;;6.47;3.45;;;15.20;99.90;;;;;;5107075;28;20039;-66
2021/07/29 01:43:32;;;;;;;5.07;3.83;;;15.30;99.90;;;;;;5107787;28;20044;-66
2021/07/29 01:45:58;;;;;;;5.22;3.70;;;15.20;99.90;;;;;;5113595;28;20035;-67
2021/07/29 01:48:25;;;;;;;5.80;3.67;;;15.20;99.90;;;;;;5113805;28;20050;-66
2021/07/29 01:50:51;;;;;;;4.78;3.40;;;15.20;99.90;;;;;;5109386;28;20039;-66
2021/07/29 01:53:17;;;;;;;6.85;3.88;;;15.20;99.90;;;;;;5101063;28;20513;-66
2021/07/29 01:55:43;;;;;;;5.20;3.55;;;15.10;99.90;;;;;;5093008;28;20461;-67
2021/07/29 01:58:10;;;;;;;5.13;3.70;;;15.10;99.90;;;;;;5098620;28;20039;-67
2021/07/29 02:00:37;;;;;;;5.75;3.55;;;15.10;99.90;;;;;;5099993;28;20036;-66
2021/07/29 02:03:04;;;;;;;8.35;3.42;;;15.10;99.90;;;;;;5103465;28;20043;-66
2021/07/29 02:05:30;;;;;;;4.80;3.45;;;15.10;99.90;;;;;;5113362;28;20071;-66
2021/07/29 02:07:56;;;;;;;8.55;4.10;;;15.10;99.90;;;;;;5112223;28;20067;-66
2021/07/29 02:10:22;;;;;;;5.45;3.83;;;15.20;99.90;;;;;;5093776;28;20039;-66
2021/07/29 02:12:49;;;;;;;7.15;3.45;;;15.20;99.90;;;;;;5107975;28;20131;-66
2021/07/29 02:15:14;;;;;;;5.45;3.38;;;15.20;99.90;;;;;;5095662;28;20050;-66
2021/07/29 02:17:40;;;;;;;7.85;4.07;;;15.30;99.90;;;;;;5112206;28;20485;-66
2021/07/29 02:20:07;;;;;;;8.00;3.72;;;15.30;99.90;;;;;;5113899;28;20040;-66
2021/07/29 02:22:32;;;;;;;9.20;4.07;;;15.30;99.90;;;;;;5109364;28;20576;-66
2021/07/29 02:24:58;;;;;;;6.18;3.47;;;15.30;99.90;;;;;;5093982;28;20114;-66
2021/07/29 02:27:24;;;;;;;8.25;3.65;;;15.30;99.90;;;;;;5101914;28;20035;-66
2021/07/29 02:29:53;;;;;;;3.70;2.17;;;15.30;99.90;;;;;;5093286;28;20040;-66
2021/07/29 02:32:20;;;;;;;3.92;1.75;;;15.30;99.90;;;;;;5093258;28;20040;-66
2021/07/29 02:34:46;;;;;;;2.22;1.23;;;15.00;99.90;;;;;;5102806;28;20051;-66
2021/07/29 02:37:12;;;;;;;4.03;1.60;;;14.90;99.90;;;;;;5113258;28;20036;-66
2021/07/29 02:39:40;;;;;;;1.80;1.25;;;14.90;99.90;;;;;;5100634;28;20028;-66
2021/07/29 02:42:07;;;;;;;1.75;1.20;;;14.80;99.90;;;;;;5097700;28;20040;-66
2021/07/29 02:44:34;;;;;;;0.80;0.80;;;14.70;99.90;;;;;;5111979;28;20072;-67
2021/07/29 02:47:00;;;;;;;3.83;0.95;;;14.70;99.90;;;;;;5095241;28;20400;-67
2021/07/29 02:49:26;;;;;;;1.30;1.02;;;14.60;99.90;;;;;;5099344;28;20040;-66
2021/07/29 02:51:52;;;;;;;3.30;0.70;;;14.30;99.90;;;;;;5102529;28;20036;-66
2021/07/29 02:54:18;;;;;;;1.48;0.95;;;14.30;99.90;;;;;;5108639;28;20032;-66
2021/07/29 02:56:44;;;;;;;1.35;0.70;;;14.20;99.90;;;;;;5113008;28;20392;-66
2021/07/29 02:59:10;;;;;;;2.67;0.90;;;14.10;99.90;;;;;;5096972;28;20054;-67
2021/07/29 03:01:36;;;;;;;1.33;0.52;;;14.10;99.90;;;;;;5092735;28;20067;-67
2021/07/29 03:04:01;;;;;;;1.58;0.75;;;13.90;99.90;;;;;;5105463;28;20040;-67
2021/07/29 03:06:27;;;;;;;1.83;0.70;;;13.90;99.90;;;;;;5112748;28;20050;-66
2021/07/29 03:08:53;;;;;;;1.77;0.80;;;13.80;99.90;;;;;;5103330;28;20439;-66
2021/07/29 03:11:19;;;;;;;1.77;1.13;;;13.70;99.90;;;;;;5109643;28;20700;-67
2021/07/29 03:13:46;;;;;;;1.45;0.73;;;13.60;99.90;;;;;;5102969;28;20075;-66
2021/07/29 03:16:11;;;;;;;0.80;0.70;;;13.50;99.90;;;;;;5111761;28;20189;-66
2021/07/29 03:18:37;;;;;;;1.38;0.60;;;13.50;99.90;;;;;;5102419;28;20044;-66
2021/07/29 03:21:07;;;;;;;1.77;0.60;;;13.50;99.90;;;;;;5092271;28;20040;-66
2021/07/29 03:23:33;;;;;;;1.40;0.52;;;13.50;99.90;;;;;;5100932;28;20063;-66
2021/07/29 03:25:59;;;;;;;1.75;0.63;;;13.50;99.90;;;;;;5092978;28;20044;-66
2021/07/29 03:28:24;;;;;;;0.93;0.50;;;13.40;99.90;;;;;;5103949;28;20032;-66
2021/07/29 03:30:51;;;;;;;0.57;0.57;;;13.40;99.90;;;;;;5092033;28;20059;-66
2021/07/29 03:33:17;;;;;;;0.93;0.70;;;13.40;99.90;;;;;;5098694;28;20047;-66
2021/07/29 03:35:43;;;;;;;2.25;0.57;;;13.40;99.90;;;;;;5110722;28;20043;-66
2021/07/29 03:38:09;;;;;;;1.15;0.60;;;13.30;99.90;;;;;;5097230;28;20031;-66
2021/07/29 03:40:35;;;;;;;0.40;0.40;;;13.20;99.90;;;;;;5099536;28;20078;-66
2021/07/29 03:43:04;;;;;;;1.77;0.70;;;13.20;99.90;;;;;;5091886;28;20082;-66
2021/07/29 03:45:31;;;;;;;1.10;0.60;;;13.10;99.90;;;;;;5092219;28;20043;-66
2021/07/29 03:47:58;;;;;;;2.60;0.65;;;13.00;99.90;;;;;;5091727;28;20485;-66
2021/07/29 03:50:24;;;;;;;2.55;0.70;;;13.00;99.90;;;;;;5093451;28;20040;-66
2021/07/29 03:52:49;;;;;;;3.50;0.88;;;13.00;99.90;;;;;;5092591;28;20040;-66
2021/07/29 03:55:15;;;;;;;2.55;0.88;;;12.90;99.90;;;;;;5091158;28;20043;-66
2021/07/29 03:57:40;;;;;;;1.00;0.90;;;12.80;99.90;;;;;;5094351;28;20043;-66
2021/07/29 04:00:08;;;;;;;5.80;1.00;;;12.80;99.90;;;;;;5109916;28;20395;-68
2021/07/29 04:02:34;;;;;;;5.10;1.00;;;12.80;99.90;;;;;;5107141;28;20053;-66
2021/07/29 04:05:00;;;;;;;3.13;1.20;;;12.70;99.90;;;;;;5111455;28;20057;-67
2021/07/29 04:07:26;;;;;;;2.25;1.40;;;12.70;99.90;;;;;;5101483;28;20032;-66
2021/07/29 04:09:52;;;;;;;5.65;1.83;;;12.70;99.90;;;;;;5108316;28;20035;-66
2021/07/29 04:12:18;;;;;;;3.67;1.58;;;12.80;99.90;;;;;;5083674;28;20386;-66
2021/07/29 04:14:44;;;;;;;4.28;1.75;;;12.80;99.90;;;;;;5110051;28;20049;-66
2021/07/29 04:17:09;;;;;;;4.03;2.05;;;12.80;99.90;;;;;;5111014;28;20047;-66
2021/07/29 04:19:36;;;;;;;5.93;2.05;;;12.90;99.90;;;;;;5111078;28;20043;-67
2021/07/29 04:22:04;;;;;;;3.08;1.70;;;12.90;99.90;;;;;;5110085;28;20093;-67
2021/07/29 04:24:33;;;;;;;3.22;2.00;;;12.90;99.90;;;;;;5095413;28;20478;-66
2021/07/29 04:27:01;;;;;;;4.30;1.90;;;12.90;99.90;;;;;;5097346;28;20065;-66
2021/07/29 04:29:39;;;;;;;3.47;1.95;;;12.90;99.90;;;;;;5108593;28;20048;-66
2021/07/29 04:32:06;;;;;;;8.02;2.47;;;13.00;99.90;;;;;;5090486;28;20611;-66
2021/07/29 04:34:36;;;;;;;3.30;2.05;;;13.10;99.90;;;;;;5090985;28;20040;-66
2021/07/29 04:37:02;;;;;;;4.70;2.30;;;13.10;99.90;;;;;;5091006;28;20040;-66
2021/07/29 04:39:30;;;;;;;5.28;2.47;;;13.20;99.90;;;;;;5091900;28;20130;-66
2021/07/29 04:41:55;;;;;;;4.57;2.25;;;13.20;99.90;;;;;;5106783;28;20160;-66
2021/07/29 04:44:21;;;;;;;7.38;2.55;;;13.20;99.90;;;;;;5110722;28;20117;-66
2021/07/29 04:46:47;;;;;;;5.53;2.53;;;13.30;99.90;;;;;;5093163;28;20461;-66
2021/07/29 04:49:13;;;;;;;6.20;2.75;;;13.40;99.90;;;;;;5095720;28;20249;-67
2021/07/29 04:51:40;;;;;;;8.07;2.55;;;13.50;99.90;;;;;;5110438;28;20071;-66
2021/07/29 04:54:06;;;;;;;5.47;2.60;;;13.60;99.90;;;;;;5108511;28;20047;-66
2021/07/29 04:56:32;;;;;;;3.90;2.63;;;13.70;99.90;;;;;;5110884;28;20031;-66
2021/07/29 04:58:58;;;;;;;8.73;2.80;;;13.80;99.90;;;;;;5096383;28;20063;-66
2021/07/29 05:01:24;;;;;;;5.03;2.35;;;13.90;99.90;;;;;;5108490;28;20067;-66
2021/07/29 05:03:50;;;;;;;6.80;2.50;;;13.90;99.90;;;;;;5109487;28;20093;-66
2021/07/29 05:06:16;;;;;;;5.88;2.53;;;14.00;99.90;;;;;;5111128;28;20044;-66
2021/07/29 05:08:42;;;;;;;8.57;2.50;;;13.90;99.90;;;;;;5098884;28;20040;-67
2021/07/29 05:11:09;;;;;;;8.60;2.80;;;14.00;99.90;;;;;;5106854;28;20419;-67
2021/07/29 05:13:36;;;;;;;5.65;2.50;;;14.00;99.90;;;;;;5100643;28;20474;-67
2021/07/29 05:16:07;;;;;;;7.03;2.58;;;14.10;99.90;;;;;;5110668;28;20244;-67
2021/07/29 05:18:33;;;;;;;9.57;3.15;;;14.20;99.90;;;;;;5109678;28;20127;-67
2021/07/29 05:21:04;;;;;;;8.18;3.03;;;14.20;99.90;;;;;;5110328;28;20036;-67
2021/07/29 05:23:29;;;;;;;8.27;3.08;;;14.30;99.90;;;;;;5100019;28;20134;-66
2021/07/29 05:25:55;;;;;;;4.82;2.50;;;14.30;99.90;;;;;;5089984;28;20136;-67
2021/07/29 05:28:21;;;;;;;7.13;2.63;;;14.40;99.90;;;;;;5090753;28;20478;-67
2021/07/29 05:30:46;;;;;;;4.28;2.58;;;14.40;99.90;;;;;;5095349;28;20038;-66
2021/07/29 05:33:12;;;;;;;8.30;2.92;;;14.60;99.90;;;;;;5092251;28;20028;-67
2021/07/29 05:35:37;;;;;;;6.82;2.75;;;14.50;99.90;;;;;;5096018;28;20102;-66
2021/07/29 05:38:03;;;;;;;8.10;3.00;;;14.60;99.90;;;;;;5108600;28;20039;-66
2021/07/29 05:40:29;;;;;;;8.65;2.75;;;14.70;99.90;;;;;;5113464;28;20046;-67
2021/07/29 05:42:54;;;;;;;7.07;2.60;;;14.70;99.90;;;;;;5102793;28;20040;-67
2021/07/29 05:45:20;;;;;;;7.97;2.70;;;14.80;99.90;;;;;;5107413;28;20039;-67
2021/07/29 05:47:46;;;;;;;8.80;3.03;;;14.90;99.90;;;;;;5110882;28;20066;-67
2021/07/29 05:50:12;;;;;;;5.55;2.42;;;15.00;99.90;;;;;;5103412;28;20043;-67
2021/07/29 05:52:37;;;;;;;6.53;2.55;;;15.10;99.90;;;;;;5094245;28;20036;-67
2021/07/29 05:55:04;;;;;;;5.03;2.33;;;15.20;99.90;;;;;;5095990;28;20040;-67
2021/07/29 05:57:30;;;;;;;5.28;2.30;;;15.40;99.90;;;;;;5096700;28;20529;-67
2021/07/29 05:59:55;;;;;;;10.00;2.90;;;15.70;99.90;;;;;;5094814;28;20110;-67
2021/07/29 06:02:21;;;;;;;6.90;2.22;;;16.70;99.90;;;;;;5101407;28;20040;-67
2021/07/29 06:04:48;;;;;;;7.65;2.28;;;17.70;99.90;;;;;;5109354;28;20123;-67
2021/07/29 06:07:14;;;;;;;7.95;2.30;;;17.70;99.90;;;;;;5097464;28;20040;-67
2021/07/29 06:09:40;;;;;;;8.77;1.80;;;18.20;99.90;;;;;;5093400;28;20063;-67
2021/07/29 06:12:05;;;;;;;4.55;1.65;;;19.30;99.90;;;;;;5101946;28;20066;-67
2021/07/29 06:14:31;;;;;;;4.20;1.70;;;20.50;99.90;;;;;;5088507;28;20036;-67
2021/07/29 06:16:57;;;;;;;4.35;1.70;;;21.50;99.90;;;;;;5093605;28;20040;-67
2021/07/29 06:19:32;;;;;;;6.63;1.88;;;22.40;98.00;;;;;;5108045;28;20059;-67
2021/07/29 06:21:59;;;;;;;4.85;2.00;;;23.10;97.40;;;;;;5112891;28;20039;-67
2021/07/29 06:24:26;;;;;;;4.13;1.55;;;23.70;95.10;;;;;;5112307;28;20044;-67
2021/07/29 06:26:52;;;;;;;5.32;1.60;;;24.20;94.50;;;;;;5113528;28;20485;-67
2021/07/29 06:29:19;;;;;;;5.68;1.75;;;24.50;93.80;;;;;;5113925;28;20073;-67
2021/07/29 06:31:44;;;;;;;6.45;1.60;;;25.00;93.10;;;;;;5100320;28;20053;-68
2021/07/29 06:34:10;;;;;;;6.75;1.85;;;25.10;90.50;;;;;;5113474;28;20044;-67
2021/07/29 06:36:36;;;;;;;3.55;1.55;;;25.40;90.60;;;;;;5112823;28;20046;-67
2021/07/29 06:39:02;;;;;;;5.40;1.63;;;25.40;90.60;;;;;;5110751;28;20040;-67
2021/07/29 06:41:27;;;;;;;3.00;1.48;;;25.10;88.10;;;;;;5094169;28;20035;-67
2021/07/29 06:43:53;;;;;;;6.28;1.88;;;25.20;87.60;;;;;;5102775;28;20097;-68
2021/07/29 06:46:19;;;;;;;4.10;1.60;;;25.40;90.00;;;;;;5092845;28;20044;-67
2021/07/29 06:48:44;;;;;;;5.95;1.90;;;25.80;88.60;;;;;;5099237;28;20111;-68
2021/07/29 06:51:10;;;;;;;5.68;2.30;;;25.70;84.30;;;;;;5100369;28;20057;-67
2021/07/29 06:53:36;;;;;;;5.00;1.73;;;26.00;88.40;;;;;;5099979;28;20043;-67
2021/07/29 06:56:03;;;;;;;3.95;1.63;;;26.40;87.40;;;;;;5093312;28;20121;-67
2021/07/29 06:58:29;;;;;;;6.20;1.80;;;25.80;85.10;;;;;;5110767;28;20039;-67
2021/07/29 07:00:55;;;;;;;6.68;2.00;;;26.00;86.10;;;;;;5092597;28;20054;-67
2021/07/29 07:03:21;;;;;;;5.93;1.88;;;26.00;84.60;;;;;;5085498;28;20052;-67
2021/07/29 07:05:47;;;;;;;8.93;2.00;;;25.80;83.60;;;;;;5092548;28;20527;-67
2021/07/29 07:08:13;;;;;;;4.45;1.80;;;25.90;87.10;;;;;;5092405;28;20040;-67
2021/07/29 07:10:40;;;;;;;7.50;1.60;;;25.90;86.10;;;;;;5096474;28;20441;-67
2021/07/29 07:13:06;;;;;;;5.30;1.80;;;25.90;84.80;;;;;;5094663;28;20123;-67
2021/07/29 07:15:32;;;;;;;7.22;1.80;;;25.60;85.00;;;;;;5094781;28;20032;-67
2021/07/29 07:17:58;;;;;;;5.80;2.25;;;25.20;88.90;;;;;;5089531;28;20860;-67
2021/07/29 07:20:24;;;;;;;6.57;2.10;;;24.80;88.40;;;;;;5091804;28;20070;-67
2021/07/29 07:22:53;;;;;;;5.32;1.58;;;24.40;90.20;;;;;;5073712;28;20044;-67
2021/07/29 07:25:19;;;;;;;7.85;2.10;;;24.00;90.50;;;;;;5087542;28;20497;-67
2021/07/29 07:27:46;;;;;;;6.22;2.05;;;24.70;90.40;;;;;;5088796;28;20051;-67
2021/07/29 07:30:12;;;;;;;9.30;2.40;;;24.30;90.60;;;;;;5088119;28;20032;-66
2021/07/29 07:32:37;;;;;;;7.20;1.90;;;24.00;91.50;;;;;;5089282;28;20106;-67
2021/07/29 07:35:04;;;;;;;7.22;2.10;;;23.50;92.00;;;;;;5086645;28;20052;-67
2021/07/29 07:37:30;;;;;;;6.60;2.13;;;22.80;92.60;;;;;;5088027;28;20028;-67
2021/07/29 07:39:55;;;;;;;5.93;1.80;;;22.00;94.20;;;;;;5088052;28;20043;-67
2021/07/29 07:42:21;;;;;;;6.32;2.13;;;21.20;95.60;;;;;;5086843;28;20043;-66
2021/07/29 07:44:47;;;;;;;7.28;2.20;;;20.80;97.10;;;;;;5082552;28;20036;-66
2021/07/29 07:47:12;;;;;;;8.05;2.42;;;20.40;98.00;;;;;;5089168;28;20381;-66
2021/07/29 07:49:39;;;;;;;6.93;2.20;;;20.20;99.00;;;;;;5091703;28;20047;-66
2021/07/29 07:52:09;;;;;;;6.38;2.22;;;19.70;99.90;;;;;;5084881;28;20093;-66
2021/07/29 07:54:37;;;;;;;6.18;2.30;;;19.40;99.90;;;;;;5061557;28;20032;-66
2021/07/29 07:57:05;;;;;;;8.57;2.60;;;19.20;99.90;;;;;;5082494;28;20036;-67
2021/07/29 07:59:36;;;;;;;5.75;2.20;;;18.80;99.90;;;;;;5090194;28;20423;-67
2021/07/29 08:02:02;;;;;;;6.25;2.15;;;18.80;99.90;;;;;;5088330;28;20035;-67
2021/07/29 08:04:28;;;;;;;6.75;2.20;;;18.70;99.90;;;;;;5063301;28;20046;-67
2021/07/29 08:06:54;;;;;;;7.32;2.20;;;18.70;99.90;;;;;;5089500;28;20044;-67
2021/07/29 08:09:20;;;;;;;7.82;2.08;;;18.80;99.90;;;;;;5090949;28;20034;-67
2021/07/29 08:11:45;;;;;;;5.53;1.73;;;18.90;99.90;;;;;;5090426;28;20032;-66
2021/07/29 08:14:12;;;;;;;7.07;2.00;;;19.20;99.90;;;;;;5072599;28;20036;-67
2021/07/29 08:16:38;;;;;;;5.60;1.67;;;19.40;99.90;;;;;;5090930;28;20063;-67
2021/07/29 08:19:04;;;;;;;5.30;1.90;;;19.50;99.70;;;;;;5090148;28;20040;-67
2021/07/29 08:21:30;;;;;;;6.55;1.77;;;19.60;99.90;;;;;;5090479;28;20046;-66
2021/07/29 08:23:56;;;;;;;6.90;2.08;;;19.80;99.70;;;;;;5088221;28;20119;-67
2021/07/29 08:26:22;;;;;;;5.97;2.17;;;19.80;99.90;;;;;;5090675;28;20111;-66
2021/07/29 08:28:51;;;;;;;3.83;1.73;;;19.90;99.90;;;;;;5090613;28;20103;-67
2021/07/29 08:31:17;;;;;;;7.60;2.45;;;20.00;98.80;;;;;;5093137;22;20091;-63
2021/07/29 08:33:43;;;;;;;8.02;1.90;;;20.00;99.70;;;;;;5071151;28;20075;-64
2021/07/29 08:36:19;;;;;;;5.05;1.95;;;20.00;99.20;;;;;;5087130;28;20044;-64
2021/07/29 08:38:46;;;;;;;7.60;2.30;;;19.90;99.10;;;;;;5087774;28;20405;-63
2021/07/29 08:41:15;;;;;;;6.28;2.00;;;19.90;99.70;;;;;;5081299;28;20032;-64
2021/07/29 08:43:41;;;;;;;7.78;2.22;;;20.10;99.60;;;;;;5070941;28;20051;-64
2021/07/29 08:46:10;;;;;;;5.88;2.08;;;20.30;99.40;;;;;;5086327;28;20119;-64
2021/07/29 08:48:43;;;;;;;3.13;2.15;;;20.30;97.90;;;;;;5090003;28;20059;-64
2021/07/29 08:51:08;;;;;;;4.38;1.90;;;20.40;98.20;;;;;;5083092;28;20113;-64
2021/07/29 08:53:34;;;;;;;6.93;1.42;;;20.60;98.00;;;;;;5071571;28;20549;-64
2021/07/29 08:56:00;;;;;;;5.45;1.75;;;20.60;97.30;;;;;;5086216;28;20223;-68
2021/07/29 08:58:25;;;;;;;4.20;1.73;;;20.50;96.70;;;;;;5090872;28;20553;-68
2021/07/29 09:01:12;;;;;;;4.50;1.58;;;20.70;97.00;;;;;;5088304;28;20036;-68
2021/07/29 09:03:41;;;;;;;5.82;2.13;;;20.90;96.00;;;;;;5076775;28;20036;-69
2021/07/29 09:06:12;;;;;;;4.53;1.67;;;20.80;96.00;;;;;;5091260;28;20044;-68
2021/07/29 09:08:51;;;;;;;4.03;1.90;;;20.80;96.50;;;;;;5086137;28;20029;-68
2021/07/29 09:11:28;;;;;;;5.18;1.63;;;20.60;95.80;;;;;;5075652;28;20377;-68
2021/07/29 09:14:02;;;;;;;6.60;1.67;;;20.80;96.00;;;;;;5094334;28;20046;-68
2021/07/29 09:16:28;;;;;;;5.00;1.73;;;20.70;95.50;;;;;;5076716;28;20062;-68
2021/07/29 09:18:53;;;;;;;6.03;1.90;;;20.40;96.20;;;;;;5094302;28;20036;-68
2021/07/29 09:21:19;;;;;;;5.35;1.65;;;20.40;96.90;;;;;;5094579;28;20044;-68
2021/07/29 09:24:01;;;;;;;5.82;2.20;;;20.40;97.20;;;;;;5094252;28;20097;-68
2021/07/29 09:26:27;;;;;;;6.90;2.10;;;20.50;96.60;;;;;;5091571;28;20111;-67
2021/07/29 09:28:52;;;;;;;3.90;1.70;;;20.60;96.50;;;;;;5094033;28;20111;-68
2021/07/29 09:31:20;;;;;;;5.18;2.22;;;20.80;97.40;;;;;;5076001;28;20048;-68
2021/07/29 09:34:12;;;;;;;5.65;2.00;;;21.00;95.90;;;;;;5075937;28;20611;-67
2021/07/29 09:36:38;;;;;;;;;;;21.00;95.00;;;;;;5091759;28;20055;-67
2021/07/29 09:39:23;;;;;;;9.18;2.30;;;20.70;95.50;;;;;;5075925;28;19919;-68
2021/07/29 09:41:54;;;;;;;4.95;1.73;;;20.60;96.20;;;;;;5094200;28;20039;-68
2021/07/29 09:44:49;;;;;;;;;;;20.50;96.50;;;;;;5093110;28;20113;-68
2021/07/29 09:47:17;;;;;;;4.35;1.70;;;20.20;97.60;;;;;;5083232;28;19920;-68
2021/07/29 09:49:42;;;;;;;6.43;2.25;;;20.10;96.70;;;;;;5075856;28;20136;-67
2021/07/29 09:52:08;;;;;;;5.95;2.17;;;19.70;98.00;;;;;;5093949;28;20507;-67
2021/07/29 09:54:36;;;;;;;4.85;1.80;;;19.80;98.40;;;;;;5093645;28;20036;-68
2021/07/29 09:57:02;;;;;;;4.72;2.17;;;19.80;97.10;;;;;;5093834;28;20047;-67
2021/07/29 09:59:28;;;;;;;4.60;1.90;;;19.90;98.30;;;;;;5093717;28;20036;-68
2021/07/29 10:01:55;;;;;;;7.53;1.98;;;20.10;98.40;;;;;;5077793;28;20047;-67
2021/07/29 10:04:43;;;;;;;8.50;2.10;;;20.10;97.10;;;;;;5091573;28;20051;-67
2021/07/29 10:07:25;;;;;;;5.85;1.90;;;20.00;97.30;;;;;;5093733;28;20089;-67
2021/07/29 10:09:52;;;;;;;4.43;1.90;;;19.90;98.00;;;;;;5093414;28;20104;-67
2021/07/29 10:12:26;;;;;;;6.32;2.13;;;19.80;97.30;;;;;;5093322;28;20559;-67
2021/07/29 10:14:55;;;;;;;5.20;1.70;;;20.10;97.60;;;;;;5093501;28;20074;-67
2021/07/29 10:17:33;;;;;;;4.80;1.67;;;20.40;96.40;;;;;;5074816;28;20089;-67
2021/07/29 10:20:20;;;;;;;6.18;1.50;;;20.40;95.50;;;;;;5073801;28;20376;-68
2021/07/29 10:23:09;;;;;;;4.35;1.55;;;20.40;95.70;;;;;;5093502;28;20040;-68
2021/07/29 10:25:53;;;;;;;4.55;1.70;;;20.30;96.20;;;;;;5074430;28;20039;-67
2021/07/29 10:28:23;;;;;;;4.85;1.40;;;20.10;94.10;;;;;;5093175;28;20476;-68
2021/07/29 10:30:57;;;;;;;5.95;2.03;;;20.00;95.60;;;;;;5074672;28;20036;-64
2021/07/29 10:33:24;;;;;;;4.78;1.70;;;19.70;96.70;;;;;;5091505;28;20044;-64
2021/07/29 10:35:53;;;;;;;4.90;1.50;;;19.50;96.50;;;;;;5094955;28;20408;-64
2021/07/29 10:38:38;;;;;;;5.57;1.88;;;19.50;97.20;;;;;;5105065;28;20039;-63
2021/07/29 10:41:24;;;;;;;4.28;1.83;;;19.50;98.20;;;;;;5101739;28;20040;-64
2021/07/29 10:43:50;;;;;;;3.60;1.70;;;19.90;97.60;;;;;;5079625;28;20610;-64
2021/07/29 10:46:16;;;;;;;6.28;1.90;;;20.20;97.30;;;;;;5097793;28;20488;-65
2021/07/29 10:48:43;;;;;;;5.00;1.88;;;20.40;96.70;;;;;;5097596;28;20055;-65
2021/07/29 10:51:23;;;;;;;5.90;1.88;;;20.70;96.60;;;;;;5093652;28;20032;-64
2021/07/29 10:53:53;;;;;;;3.67;1.40;;;20.70;95.60;;;;;;5080656;28;20040;-65
2021/07/29 10:56:20;;;;;;;8.30;2.08;;;20.60;95.10;;;;;;5092391;28;20389;-65
2021/07/29 10:58:53;;;;;;;5.15;1.60;;;20.30;94.60;;;;;;5087631;28;20043;-64
2021/07/29 11:01:20;;;;;;;2.97;1.55;;;20.30;95.90;;;;;;5087024;28;20039;-65
2021/07/29 11:03:56;;;;;;;4.32;1.52;;;20.50;95.70;;;;;;5061190;28;20174;-64
2021/07/29 11:06:36;;;;;;;6.50;2.05;;;20.60;95.60;;;;;;5078075;28;20028;-65
2021/07/29 11:09:13;;;;;;;5.13;1.55;;;20.60;95.10;;;;;;5076204;28;20098;-65
2021/07/29 11:11:43;;;;;;;4.63;2.03;;;20.50;96.40;;;;;;5087673;28;20035;-65
2021/07/29 11:14:10;;;;;;;3.47;1.77;;;20.40;95.20;;;;;;5088096;28;20588;-65
2021/07/29 11:16:36;;;;;;;6.15;1.70;;;20.30;96.50;;;;;;5093527;28;20047;-65
2021/07/29 11:19:04;;;;;;;6.22;1.90;;;20.20;95.30;;;;;;5093861;28;20119;-65
2021/07/29 11:21:31;;;;;;;6.30;1.80;;;20.30;96.40;;;;;;5076399;28;20533;-65
2021/07/29 11:23:57;;;;;;;7.70;1.83;;;20.40;96.80;;;;;;5079860;28;20040;-65
2021/07/29 11:26:23;;;;;;;3.35;1.90;;;20.50;95.80;;;;;;5091098;28;20089;-66
2021/07/29 11:29:08;;;;;;;3.53;1.60;;;20.70;95.90;;;;;;5097382;28;20048;-65
2021/07/29 11:31:39;;;;;;;3.70;2.13;;;20.90;94.90;;;;;;5101557;28;20047;-66
2021/07/29 11:34:06;;;;;;;7.13;1.70;;;21.20;94.40;;;;;;5098458;27;20036;-65
2021/07/29 11:36:32;;;;;;;3.95;1.50;;;21.40;94.30;;;;;;5110179;28;20065;-65
2021/07/29 11:39:01;;;;;;;9.20;1.55;;;21.70;94.40;;;;;;5109601;27;20028;-65
2021/07/29 11:41:28;;;;;;;5.70;1.55;;;21.70;93.10;;;;;;5101567;27;20535;-65
2021/07/29 11:43:56;;;;;;;5.78;1.80;;;21.70;92.90;;;;;;5108334;27;20046;-65
2021/07/29 11:46:22;;;;;;;5.20;2.08;;;21.70;91.20;;;;;;5113223;27;20087;-65
2021/07/29 11:48:59;;;;;;;4.35;1.80;;;21.80;93.10;;;;;;5108907;27;20043;-65
2021/07/29 11:51:25;;;;;;;9.65;2.20;;;22.00;92.60;;;;;;5110599;27;20047;-65
2021/07/29 11:53:50;;;;;;;5.45;2.30;;;22.10;92.80;;;;;;5114571;27;21212;-65
2021/07/29 11:56:17;;;;;;;9.20;1.88;;;21.90;92.20;;;;;;5106892;27;20039;-65
2021/07/29 11:58:57;;;;;;;6.32;1.98;;;21.70;93.40;;;;;;5110007;27;20043;-65
2021/07/29 12:01:23;;;;;;;6.47;1.95;;;21.60;93.10;;;;;;5112485;27;20054;-65
2021/07/29 12:03:50;;;;;;;5.45;2.30;;;21.50;94.40;;;;;;5115114;27;20035;-65
2021/07/29 12:06:16;;;;;;;8.82;2.25;;;21.20;94.20;;;;;;5119595;27;20131;-65
2021/07/29 12:08:44;;;;;;;4.45;1.90;;;21.10;93.80;;;;;;5093489;28;20101;-65
2021/07/29 12:11:11;;;;;;;2.85;1.70;;;21.00;93.10;;;;;;5115863;27;20084;-65
2021/07/29 12:13:44;;;;;;;4.72;2.10;;;20.90;94.90;;;;;;5117767;27;20039;-65
2021/07/29 12:16:10;;;;;;;5.03;1.83;;;20.60;94.60;;;;;;5103156;28;20032;-65
2021/07/29 12:18:36;;;;;;;7.35;2.00;;;20.60;96.10;;;;;;5094741;28;20036;-64
2021/07/29 12:21:03;;;;;;;6.07;1.90;;;20.50;95.40;;;;;;5106770;27;20070;-65
2021/07/29 12:23:29;;;;;;;6.20;2.17;;;20.40;95.10;;;;;;5118556;27;20039;-65
2021/07/29 12:25:57;;;;;;;6.60;2.28;;;20.50;96.00;;;;;;5115351;27;20042;-65
2021/07/29 12:28:44;;;;;;;9.02;2.53;;;20.40;96.50;;;;;;5111870;28;20536;-64
2021/07/29 12:31:21;;;;;;;6.97;2.17;;;20.60;97.10;;;;;;5101386;28;20039;-65
2021/07/29 12:33:57;;;;;;;8.48;2.03;;;20.90;96.60;;;;;;5094070;28;20042;-65
2021/07/29 12:36:25;;;;;;;5.00;1.75;;;20.70;94.80;;;;;;5082076;28;20059;-65
2021/07/29 12:39:02;;;;;;;6.88;2.00;;;20.60;94.60;;;;;;5090807;28;20101;-64
2021/07/29 12:41:29;;;;;;;3.42;1.80;;;20.60;94.50;;;;;;5094487;28;20031;-65
2021/07/29 12:44:13;;;;;;;7.55;2.10;;;20.80;95.70;;;;;;5093500;28;20032;-64
2021/07/29 12:46:40;;;;;;;7.07;2.05;;;20.90;96.60;;;;;;5093505;28;20127;-65
2021/07/29 12:49:06;;;;;;;5.32;2.08;;;21.00;94.70;;;;;;5093929;28;20047;-65
2021/07/29 12:51:43;;;;;;;6.25;2.13;;;21.10;95.60;;;;;;5094230;28;20162;-65
2021/07/29 12:54:09;;;;;;;6.15;1.77;;;21.20;95.40;;;;;;5091571;28;20488;-65